sensor_id;sensor_type;location;lat;lon;timestamp;P1;durP1;ratioP1;P2;durP2;ratioP2
6163;SDS011;3114;48.362;10.994;2022-07-22T00:02:08;10.02;;;8.95;;
6163;SDS011;3114;48.362;10.994;2022-07-22T00:04:35;10.35;;;9.20;;
6163;SDS011;3114;48.362;10.994;2022-07-22T00:07:03;10.48;;;8.63;;
6163;SDS011;3114;48.362;10.994;2022-07-22T00:09:30;11.77;;;9.45;;
6163;SDS011;3114;48.362;10.994;2022-07-22T00:11:57;11.02;;;8.55;;
6163;SDS011;3114;48.362;10.994;2022-07-22T00:14:24;10.18;;;8.70;;
6163;SDS011;3114;48.362;10.994;2022-07-22T00:16:51;9.63;;;8.63;;
6163;SDS011;3114;48.362;10.994;2022-07-22T00:19:17;10.48;;;9.07;;
6163;SDS011;3114;48.362;10.994;2022-07-22T00:21:44;10.23;;;9.23;;
6163;SDS011;3114;48.362;10.994;2022-07-22T00:24:13;11.18;;;8.95;;
6163;SDS011;3114;48.362;10.994;2022-07-22T00:26:39;10.07;;;9.02;;
6163;SDS011;3114;48.362;10.994;2022-07-22T00:29:06;10.60;;;9.50;;
6163;SDS011;3114;48.362;10.994;2022-07-22T00:31:33;13.88;;;9.95;;
6163;SDS011;3114;48.362;10.994;2022-07-22T00:34:01;10.73;;;9.63;;
6163;SDS011;3114;48.362;10.994;2022-07-22T00:36:28;11.95;;;9.75;;
6163;SDS011;3114;48.362;10.994;2022-07-22T00:38:56;12.73;;;10.57;;
6163;SDS011;3114;48.362;10.994;2022-07-22T00:41:24;11.38;;;10.18;;
6163;SDS011;3114;48.362;10.994;2022-07-22T00:43:51;11.18;;;10.00;;
6163;SDS011;3114;48.362;10.994;2022-07-22T00:46:19;10.70;;;9.60;;
6163;SDS011;3114;48.362;10.994;2022-07-22T00:48:47;13.40;;;10.57;;
6163;SDS011;3114;48.362;10.994;2022-07-22T00:51:13;13.05;;;10.68;;
6163;SDS011;3114;48.362;10.994;2022-07-22T00:53:42;12.43;;;11.20;;
6163;SDS011;3114;48.362;10.994;2022-07-22T00:56:09;16.45;;;14.80;;
6163;SDS011;3114;48.362;10.994;2022-07-22T00:58:37;14.02;;;12.63;;
6163;SDS011;3114;48.362;10.994;2022-07-22T01:01:04;10.98;;;9.70;;
6163;SDS011;3114;48.362;10.994;2022-07-22T01:03:31;13.90;;;10.88;;
6163;SDS011;3114;48.362;10.994;2022-07-22T01:05:58;11.57;;;10.38;;
6163;SDS011;3114;48.362;10.994;2022-07-22T01:08:25;13.38;;;12.10;;
6163;SDS011;3114;48.362;10.994;2022-07-22T01:10:52;11.40;;;10.30;;
6163;SDS011;3114;48.362;10.994;2022-07-22T01:13:19;10.93;;;9.90;;
6163;SDS011;3114;48.362;10.994;2022-07-22T01:15:47;12.27;;;10.80;;
6163;SDS011;3114;48.362;10.994;2022-07-22T01:18:14;12.85;;;11.00;;
6163;SDS011;3114;48.362;10.994;2022-07-22T01:20:43;13.35;;;12.05;;
6163;SDS011;3114;48.362;10.994;2022-07-22T01:23:09;19.10;;;17.20;;
6163;SDS011;3114;48.362;10.994;2022-07-22T01:25:36;13.27;;;11.65;;
6163;SDS011;3114;48.362;10.994;2022-07-22T01:28:03;14.00;;;12.60;;
6163;SDS011;3114;48.362;10.994;2022-07-22T01:30:30;14.23;;;12.82;;
6163;SDS011;3114;48.362;10.994;2022-07-22T01:32:57;14.68;;;13.30;;
6163;SDS011;3114;48.362;10.994;2022-07-22T01:35:24;11.65;;;10.10;;
6163;SDS011;3114;48.362;10.994;2022-07-22T01:37:52;11.70;;;10.20;;
6163;SDS011;3114;48.362;10.994;2022-07-22T01:40:19;10.60;;;9.50;;
6163;SDS011;3114;48.362;10.994;2022-07-22T01:42:46;11.40;;;10.20;;
6163;SDS011;3114;48.362;10.994;2022-07-22T01:45:13;10.80;;;9.77;;
6163;SDS011;3114;48.362;10.994;2022-07-22T01:47:40;13.30;;;9.60;;
6163;SDS011;3114;48.362;10.994;2022-07-22T01:50:07;11.02;;;9.93;;
6163;SDS011;3114;48.362;10.994;2022-07-22T01:52:36;12.40;;;11.00;;
6163;SDS011;3114;48.362;10.994;2022-07-22T01:55:05;12.02;;;10.77;;
6163;SDS011;3114;48.362;10.994;2022-07-22T01:57:33;13.00;;;11.52;;
6163;SDS011;3114;48.362;10.994;2022-07-22T02:00:00;15.65;;;11.98;;
6163;SDS011;3114;48.362;10.994;2022-07-22T02:02:27;17.67;;;13.48;;
6163;SDS011;3114;48.362;10.994;2022-07-22T02:04:53;16.58;;;13.80;;
6163;SDS011;3114;48.362;10.994;2022-07-22T02:07:20;16.70;;;13.35;;
6163;SDS011;3114;48.362;10.994;2022-07-22T02:09:49;15.00;;;11.18;;
6163;SDS011;3114;48.362;10.994;2022-07-22T02:12:17;13.65;;;11.20;;
6163;SDS011;3114;48.362;10.994;2022-07-22T02:14:44;14.48;;;11.38;;
6163;SDS011;3114;48.362;10.994;2022-07-22T02:17:11;12.25;;;10.55;;
6163;SDS011;3114;48.362;10.994;2022-07-22T02:19:39;11.95;;;10.15;;
6163;SDS011;3114;48.362;10.994;2022-07-22T02:22:06;12.20;;;10.90;;
6163;SDS011;3114;48.362;10.994;2022-07-22T02:24:33;10.98;;;9.93;;
6163;SDS011;3114;48.362;10.994;2022-07-22T02:27:00;11.18;;;10.00;;
6163;SDS011;3114;48.362;10.994;2022-07-22T02:29:30;11.15;;;9.90;;
6163;SDS011;3114;48.362;10.994;2022-07-22T02:31:58;13.30;;;10.55;;
6163;SDS011;3114;48.362;10.994;2022-07-22T02:34:25;12.25;;;10.95;;
6163;SDS011;3114;48.362;10.994;2022-07-22T02:36:52;12.05;;;10.85;;
6163;SDS011;3114;48.362;10.994;2022-07-22T02:39:19;12.15;;;10.95;;
6163;SDS011;3114;48.362;10.994;2022-07-22T02:41:45;12.05;;;10.75;;
6163;SDS011;3114;48.362;10.994;2022-07-22T02:44:12;14.85;;;10.82;;
6163;SDS011;3114;48.362;10.994;2022-07-22T02:46:40;14.27;;;11.95;;
6163;SDS011;3114;48.362;10.994;2022-07-22T02:49:07;16.80;;;11.65;;
6163;SDS011;3114;48.362;10.994;2022-07-22T02:51:34;14.98;;;11.57;;
6163;SDS011;3114;48.362;10.994;2022-07-22T02:54:01;13.25;;;11.20;;
6163;SDS011;3114;48.362;10.994;2022-07-22T02:56:28;12.18;;;10.85;;
6163;SDS011;3114;48.362;10.994;2022-07-22T02:58:55;13.85;;;11.85;;
6163;SDS011;3114;48.362;10.994;2022-07-22T03:01:22;12.52;;;11.20;;
6163;SDS011;3114;48.362;10.994;2022-07-22T03:03:50;14.77;;;10.88;;
6163;SDS011;3114;48.362;10.994;2022-07-22T03:06:17;12.15;;;10.85;;
6163;SDS011;3114;48.362;10.994;2022-07-22T03:08:44;15.65;;;11.27;;
6163;SDS011;3114;48.362;10.994;2022-07-22T03:11:11;12.23;;;10.82;;
6163;SDS011;3114;48.362;10.994;2022-07-22T03:13:38;12.90;;;11.60;;
6163;SDS011;3114;48.362;10.994;2022-07-22T03:16:05;12.95;;;11.52;;
6163;SDS011;3114;48.362;10.994;2022-07-22T03:18:32;13.27;;;10.13;;
6163;SDS011;3114;48.362;10.994;2022-07-22T03:21:01;12.77;;;11.43;;
6163;SDS011;3114;48.362;10.994;2022-07-22T03:23:28;12.40;;;10.57;;
6163;SDS011;3114;48.362;10.994;2022-07-22T03:25:55;12.98;;;10.77;;
6163;SDS011;3114;48.362;10.994;2022-07-22T03:28:22;13.65;;;11.95;;
6163;SDS011;3114;48.362;10.994;2022-07-22T03:30:49;14.68;;;11.95;;
6163;SDS011;3114;48.362;10.994;2022-07-22T03:33:16;15.60;;;13.48;;
6163;SDS011;3114;48.362;10.994;2022-07-22T03:35:43;13.82;;;11.32;;
6163;SDS011;3114;48.362;10.994;2022-07-22T03:38:11;13.73;;;12.23;;
6163;SDS011;3114;48.362;10.994;2022-07-22T03:40:38;12.77;;;11.13;;
6163;SDS011;3114;48.362;10.994;2022-07-22T03:43:05;12.82;;;11.38;;
6163;SDS011;3114;48.362;10.994;2022-07-22T03:45:32;20.05;;;18.33;;
6163;SDS011;3114;48.362;10.994;2022-07-22T03:47:59;22.23;;;20.30;;
6163;SDS011;3114;48.362;10.994;2022-07-22T03:50:26;18.35;;;16.65;;
6163;SDS011;3114;48.362;10.994;2022-07-22T03:52:52;15.75;;;14.10;;
6163;SDS011;3114;48.362;10.994;2022-07-22T03:55:20;16.77;;;15.18;;
6163;SDS011;3114;48.362;10.994;2022-07-22T03:57:47;15.07;;;13.57;;
6163;SDS011;3114;48.362;10.994;2022-07-22T04:00:14;15.32;;;13.77;;
6163;SDS011;3114;48.362;10.994;2022-07-22T04:02:42;14.43;;;12.00;;
6163;SDS011;3114;48.362;10.994;2022-07-22T04:05:08;14.40;;;12.27;;
6163;SDS011;3114;48.362;10.994;2022-07-22T04:07:35;14.57;;;12.63;;
6163;SDS011;3114;48.362;10.994;2022-07-22T04:10:02;18.83;;;16.88;;
6163;SDS011;3114;48.362;10.994;2022-07-22T04:12:34;17.60;;;15.90;;
6163;SDS011;3114;48.362;10.994;2022-07-22T04:15:02;17.48;;;15.77;;
6163;SDS011;3114;48.362;10.994;2022-07-22T04:17:30;17.05;;;15.43;;
6163;SDS011;3114;48.362;10.994;2022-07-22T04:19:57;14.43;;;12.93;;
6163;SDS011;3114;48.362;10.994;2022-07-22T04:22:24;14.25;;;12.75;;
6163;SDS011;3114;48.362;10.994;2022-07-22T04:24:51;14.95;;;12.27;;
6163;SDS011;3114;48.362;10.994;2022-07-22T04:27:18;15.55;;;12.25;;
6163;SDS011;3114;48.362;10.994;2022-07-22T04:29:46;14.85;;;13.13;;
6163;SDS011;3114;48.362;10.994;2022-07-22T04:32:13;17.38;;;15.70;;
6163;SDS011;3114;48.362;10.994;2022-07-22T04:34:40;18.70;;;16.80;;
6163;SDS011;3114;48.362;10.994;2022-07-22T04:37:07;18.77;;;17.10;;
6163;SDS011;3114;48.362;10.994;2022-07-22T04:39:34;13.75;;;12.20;;
6163;SDS011;3114;48.362;10.994;2022-07-22T04:42:01;17.48;;;15.98;;
6163;SDS011;3114;48.362;10.994;2022-07-22T04:44:27;11.73;;;10.60;;
6163;SDS011;3114;48.362;10.994;2022-07-22T04:46:56;11.35;;;10.05;;
6163;SDS011;3114;48.362;10.994;2022-07-22T04:49:23;12.10;;;10.57;;
6163;SDS011;3114;48.362;10.994;2022-07-22T04:51:51;13.27;;;10.27;;
6163;SDS011;3114;48.362;10.994;2022-07-22T04:54:18;13.98;;;10.60;;
6163;SDS011;3114;48.362;10.994;2022-07-22T04:56:44;11.82;;;10.63;;
6163;SDS011;3114;48.362;10.994;2022-07-22T04:59:11;12.18;;;10.88;;
6163;SDS011;3114;48.362;10.994;2022-07-22T05:01:38;14.05;;;10.85;;
6163;SDS011;3114;48.362;10.994;2022-07-22T05:04:07;13.43;;;10.82;;
6163;SDS011;3114;48.362;10.994;2022-07-22T05:06:33;13.48;;;11.65;;
6163;SDS011;3114;48.362;10.994;2022-07-22T05:09:01;15.20;;;11.75;;
6163;SDS011;3114;48.362;10.994;2022-07-22T05:11:28;13.23;;;11.15;;
6163;SDS011;3114;48.362;10.994;2022-07-22T05:13:55;14.65;;;11.07;;
6163;SDS011;3114;48.362;10.994;2022-07-22T05:16:22;12.68;;;10.93;;
6163;SDS011;3114;48.362;10.994;2022-07-22T05:18:49;15.70;;;11.82;;
6163;SDS011;3114;48.362;10.994;2022-07-22T05:21:17;12.52;;;11.23;;
6163;SDS011;3114;48.362;10.994;2022-07-22T05:23:44;12.27;;;11.07;;
6163;SDS011;3114;48.362;10.994;2022-07-22T05:26:11;14.10;;;11.70;;
6163;SDS011;3114;48.362;10.994;2022-07-22T05:28:38;12.77;;;10.73;;
6163;SDS011;3114;48.362;10.994;2022-07-22T05:31:05;11.60;;;10.40;;
6163;SDS011;3114;48.362;10.994;2022-07-22T05:33:31;12.40;;;10.82;;
6163;SDS011;3114;48.362;10.994;2022-07-22T05:35:59;13.38;;;11.10;;
6163;SDS011;3114;48.362;10.994;2022-07-22T05:38:27;12.95;;;11.23;;
6163;SDS011;3114;48.362;10.994;2022-07-22T05:40:54;13.05;;;11.07;;
6163;SDS011;3114;48.362;10.994;2022-07-22T05:43:21;16.67;;;10.50;;
6163;SDS011;3114;48.362;10.994;2022-07-22T05:45:48;13.02;;;11.63;;
6163;SDS011;3114;48.362;10.994;2022-07-22T05:48:15;13.50;;;12.07;;
6163;SDS011;3114;48.362;10.994;2022-07-22T05:50:42;16.40;;;11.80;;
6163;SDS011;3114;48.362;10.994;2022-07-22T05:53:08;15.70;;;11.25;;
6163;SDS011;3114;48.362;10.994;2022-07-22T05:55:37;14.00;;;11.93;;
6163;SDS011;3114;48.362;10.994;2022-07-22T05:58:03;15.07;;;12.88;;
6163;SDS011;3114;48.362;10.994;2022-07-22T06:00:30;13.32;;;11.65;;
6163;SDS011;3114;48.362;10.994;2022-07-22T06:02:57;12.88;;;11.57;;
6163;SDS011;3114;48.362;10.994;2022-07-22T06:05:24;14.38;;;11.98;;
6163;SDS011;3114;48.362;10.994;2022-07-22T06:07:51;13.48;;;11.88;;
6163;SDS011;3114;48.362;10.994;2022-07-22T06:10:18;13.43;;;11.88;;
6163;SDS011;3114;48.362;10.994;2022-07-22T06:12:47;13.52;;;12.13;;
6163;SDS011;3114;48.362;10.994;2022-07-22T06:15:14;12.50;;;11.20;;
6163;SDS011;3114;48.362;10.994;2022-07-22T06:17:41;13.90;;;11.73;;
6163;SDS011;3114;48.362;10.994;2022-07-22T06:20:08;14.65;;;12.48;;
6163;SDS011;3114;48.362;10.994;2022-07-22T06:22:35;12.43;;;11.10;;
6163;SDS011;3114;48.362;10.994;2022-07-22T06:25:05;14.75;;;12.18;;
6163;SDS011;3114;48.362;10.994;2022-07-22T06:27:33;13.70;;;12.20;;
6163;SDS011;3114;48.362;10.994;2022-07-22T06:30:01;14.18;;;12.60;;
6163;SDS011;3114;48.362;10.994;2022-07-22T06:32:29;14.52;;;13.02;;
6163;SDS011;3114;48.362;10.994;2022-07-22T06:34:55;15.70;;;12.88;;
6163;SDS011;3114;48.362;10.994;2022-07-22T06:37:22;15.15;;;13.55;;
6163;SDS011;3114;48.362;10.994;2022-07-22T06:39:49;15.88;;;12.88;;
6163;SDS011;3114;48.362;10.994;2022-07-22T06:42:16;16.02;;;12.90;;
6163;SDS011;3114;48.362;10.994;2022-07-22T06:44:43;15.68;;;12.27;;
6163;SDS011;3114;48.362;10.994;2022-07-22T06:47:11;14.45;;;12.95;;
6163;SDS011;3114;48.362;10.994;2022-07-22T06:49:38;15.90;;;11.85;;
6163;SDS011;3114;48.362;10.994;2022-07-22T06:52:05;14.85;;;12.20;;
6163;SDS011;3114;48.362;10.994;2022-07-22T06:54:32;15.27;;;12.10;;
6163;SDS011;3114;48.362;10.994;2022-07-22T06:56:58;14.27;;;11.30;;
6163;SDS011;3114;48.362;10.994;2022-07-22T06:59:25;13.30;;;10.82;;
6163;SDS011;3114;48.362;10.994;2022-07-22T07:01:52;12.75;;;11.02;;
6163;SDS011;3114;48.362;10.994;2022-07-22T07:04:20;13.13;;;11.70;;
6163;SDS011;3114;48.362;10.994;2022-07-22T07:06:47;12.68;;;10.70;;
6163;SDS011;3114;48.362;10.994;2022-07-22T07:09:14;11.95;;;10.75;;
6163;SDS011;3114;48.362;10.994;2022-07-22T07:11:41;12.70;;;11.27;;
6163;SDS011;3114;48.362;10.994;2022-07-22T07:14:08;12.25;;;11.00;;
6163;SDS011;3114;48.362;10.994;2022-07-22T07:16:34;12.32;;;10.77;;
6163;SDS011;3114;48.362;10.994;2022-07-22T07:19:01;12.10;;;10.88;;
6163;SDS011;3114;48.362;10.994;2022-07-22T07:21:30;13.48;;;10.60;;
6163;SDS011;3114;48.362;10.994;2022-07-22T07:23:57;11.48;;;10.13;;
6163;SDS011;3114;48.362;10.994;2022-07-22T07:26:24;10.82;;;9.63;;
6163;SDS011;3114;48.362;10.994;2022-07-22T07:28:51;11.63;;;9.75;;
6163;SDS011;3114;48.362;10.994;2022-07-22T07:31:18;10.43;;;9.32;;
6163;SDS011;3114;48.362;10.994;2022-07-22T07:33:44;10.02;;;8.82;;
6163;SDS011;3114;48.362;10.994;2022-07-22T07:36:11;12.63;;;9.70;;
6163;SDS011;3114;48.362;10.994;2022-07-22T07:38:40;11.35;;;9.75;;
6163;SDS011;3114;48.362;10.994;2022-07-22T07:41:07;12.60;;;10.02;;
6163;SDS011;3114;48.362;10.994;2022-07-22T07:43:34;10.48;;;9.38;;
6163;SDS011;3114;48.362;10.994;2022-07-22T07:46:01;11.48;;;8.68;;
6163;SDS011;3114;48.362;10.994;2022-07-22T07:48:29;10.60;;;9.13;;
6163;SDS011;3114;48.362;10.994;2022-07-22T07:50:56;12.88;;;9.32;;
6163;SDS011;3114;48.362;10.994;2022-07-22T07:53:23;12.88;;;9.95;;
6163;SDS011;3114;48.362;10.994;2022-07-22T07:55:51;11.38;;;10.27;;
6163;SDS011;3114;48.362;10.994;2022-07-22T07:58:18;11.98;;;9.75;;
6163;SDS011;3114;48.362;10.994;2022-07-22T08:00:45;12.30;;;9.30;;
6163;SDS011;3114;48.362;10.994;2022-07-22T08:03:12;10.40;;;9.00;;
6163;SDS011;3114;48.362;10.994;2022-07-22T08:05:39;11.02;;;9.68;;
6163;SDS011;3114;48.362;10.994;2022-07-22T08:08:07;13.15;;;10.60;;
6163;SDS011;3114;48.362;10.994;2022-07-22T08:10:34;12.70;;;9.73;;
6163;SDS011;3114;48.362;10.994;2022-07-22T08:13:03;11.75;;;9.80;;
6163;SDS011;3114;48.362;10.994;2022-07-22T08:15:30;11.90;;;10.68;;
6163;SDS011;3114;48.362;10.994;2022-07-22T08:17:58;12.27;;;10.43;;
6163;SDS011;3114;48.362;10.994;2022-07-22T08:20:25;11.70;;;10.50;;
6163;SDS011;3114;48.362;10.994;2022-07-22T08:22:53;12.88;;;10.43;;
6163;SDS011;3114;48.362;10.994;2022-07-22T08:25:22;12.63;;;10.57;;
6163;SDS011;3114;48.362;10.994;2022-07-22T08:27:49;12.00;;;10.18;;
6163;SDS011;3114;48.362;10.994;2022-07-22T08:30:18;12.02;;;10.57;;
6163;SDS011;3114;48.362;10.994;2022-07-22T08:32:45;12.20;;;10.70;;
6163;SDS011;3114;48.362;10.994;2022-07-22T08:35:13;14.23;;;10.27;;
6163;SDS011;3114;48.362;10.994;2022-07-22T08:37:40;12.45;;;10.30;;
6163;SDS011;3114;48.362;10.994;2022-07-22T08:40:07;13.45;;;10.50;;
6163;SDS011;3114;48.362;10.994;2022-07-22T08:42:36;14.13;;;11.02;;
6163;SDS011;3114;48.362;10.994;2022-07-22T08:45:04;11.55;;;10.38;;
6163;SDS011;3114;48.362;10.994;2022-07-22T08:47:34;12.98;;;9.90;;
6163;SDS011;3114;48.362;10.994;2022-07-22T08:50:01;11.80;;;9.95;;
6163;SDS011;3114;48.362;10.994;2022-07-22T08:52:29;14.68;;;10.38;;
6163;SDS011;3114;48.362;10.994;2022-07-22T08:54:56;13.10;;;10.32;;
6163;SDS011;3114;48.362;10.994;2022-07-22T08:57:23;11.18;;;9.63;;
6163;SDS011;3114;48.362;10.994;2022-07-22T08:59:51;12.13;;;9.60;;
6163;SDS011;3114;48.362;10.994;2022-07-22T09:02:19;11.27;;;9.05;;
6163;SDS011;3114;48.362;10.994;2022-07-22T09:04:55;11.65;;;9.38;;
6163;SDS011;3114;48.362;10.994;2022-07-22T09:07:25;9.57;;;8.52;;
6163;SDS011;3114;48.362;10.994;2022-07-22T09:09:52;8.98;;;8.07;;
6163;SDS011;3114;48.362;10.994;2022-07-22T09:12:19;11.50;;;8.65;;
6163;SDS011;3114;48.362;10.994;2022-07-22T09:14:48;9.65;;;8.40;;
6163;SDS011;3114;48.362;10.994;2022-07-22T09:17:24;10.48;;;8.50;;
6163;SDS011;3114;48.362;10.994;2022-07-22T09:19:53;10.02;;;8.63;;
6163;SDS011;3114;48.362;10.994;2022-07-22T09:22:35;10.15;;;8.52;;
6163;SDS011;3114;48.362;10.994;2022-07-22T09:25:17;10.05;;;8.77;;
6163;SDS011;3114;48.362;10.994;2022-07-22T09:27:46;9.60;;;8.60;;
6163;SDS011;3114;48.362;10.994;2022-07-22T09:30:14;9.52;;;8.60;;
6163;SDS011;3114;48.362;10.994;2022-07-22T09:32:43;10.90;;;8.27;;
6163;SDS011;3114;48.362;10.994;2022-07-22T09:35:12;11.18;;;9.20;;
6163;SDS011;3114;48.362;10.994;2022-07-22T09:37:47;10.95;;;8.52;;
6163;SDS011;3114;48.362;10.994;2022-07-22T09:40:19;8.25;;;7.38;;
6163;SDS011;3114;48.362;10.994;2022-07-22T09:42:48;10.13;;;7.90;;
6163;SDS011;3114;48.362;10.994;2022-07-22T09:45:17;10.98;;;8.25;;
6163;SDS011;3114;48.362;10.994;2022-07-22T09:47:45;9.57;;;8.52;;
6163;SDS011;3114;48.362;10.994;2022-07-22T09:50:15;9.40;;;7.75;;
6163;SDS011;3114;48.362;10.994;2022-07-22T09:52:45;9.80;;;8.40;;
6163;SDS011;3114;48.362;10.994;2022-07-22T09:55:15;9.80;;;8.02;;
6163;SDS011;3114;48.362;10.994;2022-07-22T09:57:43;11.10;;;8.57;;
6163;SDS011;3114;48.362;10.994;2022-07-22T10:00:12;10.82;;;8.18;;
6163;SDS011;3114;48.362;10.994;2022-07-22T10:02:43;10.55;;;8.95;;
6163;SDS011;3114;48.362;10.994;2022-07-22T10:05:13;9.68;;;8.07;;
6163;SDS011;3114;48.362;10.994;2022-07-22T10:07:45;8.38;;;7.53;;
6163;SDS011;3114;48.362;10.994;2022-07-22T10:10:14;8.52;;;6.95;;
6163;SDS011;3114;48.362;10.994;2022-07-22T10:12:45;9.82;;;7.85;;
6163;SDS011;3114;48.362;10.994;2022-07-22T10:15:14;8.10;;;7.05;;
6163;SDS011;3114;48.362;10.994;2022-07-22T10:17:42;8.00;;;7.07;;
6163;SDS011;3114;48.362;10.994;2022-07-22T10:20:13;9.10;;;7.40;;
6163;SDS011;3114;48.362;10.994;2022-07-22T10:22:48;9.52;;;7.22;;
6163;SDS011;3114;48.362;10.994;2022-07-22T10:25:20;8.10;;;7.30;;
6163;SDS011;3114;48.362;10.994;2022-07-22T10:27:49;7.68;;;6.97;;
6163;SDS011;3114;48.362;10.994;2022-07-22T10:30:18;6.93;;;6.22;;
6163;SDS011;3114;48.362;10.994;2022-07-22T10:33:00;8.75;;;6.30;;
6163;SDS011;3114;48.362;10.994;2022-07-22T10:35:37;10.43;;;7.53;;
6163;SDS011;3114;48.362;10.994;2022-07-22T10:38:18;8.70;;;6.95;;
6163;SDS011;3114;48.362;10.994;2022-07-22T10:40:53;8.98;;;6.97;;
6163;SDS011;3114;48.362;10.994;2022-07-22T10:43:22;8.35;;;7.30;;
6163;SDS011;3114;48.362;10.994;2022-07-22T10:45:52;9.35;;;6.20;;
6163;SDS011;3114;48.362;10.994;2022-07-22T10:48:21;8.15;;;7.10;;
6163;SDS011;3114;48.362;10.994;2022-07-22T10:50:52;10.68;;;6.38;;
6163;SDS011;3114;48.362;10.994;2022-07-22T10:53:40;9.13;;;6.45;;
6163;SDS011;3114;48.362;10.994;2022-07-22T10:56:15;7.13;;;6.38;;
6163;SDS011;3114;48.362;10.994;2022-07-22T10:58:52;6.57;;;5.82;;
6163;SDS011;3114;48.362;10.994;2022-07-22T11:01:24;7.15;;;6.32;;
6163;SDS011;3114;48.362;10.994;2022-07-22T11:03:54;8.23;;;5.70;;
6163;SDS011;3114;48.362;10.994;2022-07-22T11:06:24;11.30;;;6.13;;
6163;SDS011;3114;48.362;10.994;2022-07-22T11:08:54;7.38;;;6.20;;
6163;SDS011;3114;48.362;10.994;2022-07-22T11:11:32;8.00;;;7.20;;
6163;SDS011;3114;48.362;10.994;2022-07-22T11:14:03;7.43;;;5.63;;
6163;SDS011;3114;48.362;10.994;2022-07-22T11:16:36;6.88;;;5.38;;
6163;SDS011;3114;48.362;10.994;2022-07-22T11:19:07;7.28;;;5.78;;
6163;SDS011;3114;48.362;10.994;2022-07-22T11:21:35;6.45;;;5.85;;
6163;SDS011;3114;48.362;10.994;2022-07-22T11:24:03;8.80;;;6.10;;
6163;SDS011;3114;48.362;10.994;2022-07-22T11:26:38;9.10;;;6.90;;
6163;SDS011;3114;48.362;10.994;2022-07-22T11:29:06;7.32;;;6.07;;
6163;SDS011;3114;48.362;10.994;2022-07-22T11:31:40;6.60;;;5.93;;
6163;SDS011;3114;48.362;10.994;2022-07-22T11:34:08;7.95;;;5.82;;
6163;SDS011;3114;48.362;10.994;2022-07-22T11:36:38;8.40;;;5.75;;
6163;SDS011;3114;48.362;10.994;2022-07-22T11:39:06;5.28;;;4.75;;
6163;SDS011;3114;48.362;10.994;2022-07-22T11:41:37;7.50;;;5.90;;
6163;SDS011;3114;48.362;10.994;2022-07-22T11:44:05;6.95;;;5.45;;
6163;SDS011;3114;48.362;10.994;2022-07-22T11:46:36;6.70;;;5.55;;
6163;SDS011;3114;48.362;10.994;2022-07-22T11:49:04;10.38;;;9.48;;
6163;SDS011;3114;48.362;10.994;2022-07-22T11:51:34;10.32;;;8.98;;
6163;SDS011;3114;48.362;10.994;2022-07-22T11:54:04;7.72;;;6.78;;
6163;SDS011;3114;48.362;10.994;2022-07-22T11:56:32;7.50;;;6.68;;
6163;SDS011;3114;48.362;10.994;2022-07-22T11:59:00;9.95;;;7.60;;
6163;SDS011;3114;48.362;10.994;2022-07-22T12:01:34;8.35;;;7.57;;
6163;SDS011;3114;48.362;10.994;2022-07-22T12:04:06;9.27;;;8.57;;
6163;SDS011;3114;48.362;10.994;2022-07-22T12:06:34;11.25;;;10.25;;
6163;SDS011;3114;48.362;10.994;2022-07-22T12:09:06;11.30;;;10.25;;
6163;SDS011;3114;48.362;10.994;2022-07-22T12:11:34;10.30;;;9.40;;
6163;SDS011;3114;48.362;10.994;2022-07-22T12:14:06;9.40;;;8.60;;
6163;SDS011;3114;48.362;10.994;2022-07-22T12:16:35;9.98;;;8.68;;
6163;SDS011;3114;48.362;10.994;2022-07-22T12:19:04;8.57;;;7.82;;
6163;SDS011;3114;48.362;10.994;2022-07-22T12:21:33;10.15;;;9.25;;
6163;SDS011;3114;48.362;10.994;2022-07-22T12:24:02;11.35;;;10.40;;
6163;SDS011;3114;48.362;10.994;2022-07-22T12:26:38;11.23;;;10.15;;
6163;SDS011;3114;48.362;10.994;2022-07-22T12:29:15;9.45;;;7.40;;
6163;SDS011;3114;48.362;10.994;2022-07-22T12:31:47;5.85;;;5.35;;
6163;SDS011;3114;48.362;10.994;2022-07-22T12:34:15;5.70;;;5.15;;
6163;SDS011;3114;48.362;10.994;2022-07-22T12:36:44;7.35;;;5.45;;
6163;SDS011;3114;48.362;10.994;2022-07-22T12:39:17;7.28;;;5.25;;
6163;SDS011;3114;48.362;10.994;2022-07-22T12:41:45;5.68;;;5.03;;
6163;SDS011;3114;48.362;10.994;2022-07-22T12:44:17;5.47;;;4.85;;
6163;SDS011;3114;48.362;10.994;2022-07-22T12:46:46;6.60;;;5.00;;
6163;SDS011;3114;48.362;10.994;2022-07-22T12:49:14;5.72;;;4.95;;
6163;SDS011;3114;48.362;10.994;2022-07-22T12:54:33;6.85;;;4.75;;
6163;SDS011;3114;48.362;10.994;2022-07-22T12:57:00;5.78;;;5.15;;
6163;SDS011;3114;48.362;10.994;2022-07-22T12:59:28;7.85;;;5.22;;
6163;SDS011;3114;48.362;10.994;2022-07-22T13:01:55;7.72;;;5.10;;
6163;SDS011;3114;48.362;10.994;2022-07-22T13:04:22;6.88;;;5.50;;
6163;SDS011;3114;48.362;10.994;2022-07-22T13:06:49;5.85;;;5.15;;
6163;SDS011;3114;48.362;10.994;2022-07-22T13:09:17;7.50;;;4.80;;
6163;SDS011;3114;48.362;10.994;2022-07-22T13:11:45;5.70;;;5.20;;
6163;SDS011;3114;48.362;10.994;2022-07-22T13:14:12;5.60;;;5.20;;
6163;SDS011;3114;48.362;10.994;2022-07-22T13:16:46;6.22;;;5.03;;
6163;SDS011;3114;48.362;10.994;2022-07-22T13:19:13;6.60;;;5.10;;
6163;SDS011;3114;48.362;10.994;2022-07-22T13:21:40;5.78;;;4.90;;
6163;SDS011;3114;48.362;10.994;2022-07-22T13:24:07;5.65;;;5.18;;
6163;SDS011;3114;48.362;10.994;2022-07-22T13:26:34;6.53;;;5.43;;
6163;SDS011;3114;48.362;10.994;2022-07-22T13:29:03;5.93;;;5.45;;
6163;SDS011;3114;48.362;10.994;2022-07-22T13:31:30;5.88;;;5.35;;
6163;SDS011;3114;48.362;10.994;2022-07-22T13:33:57;6.03;;;5.38;;
6163;SDS011;3114;48.362;10.994;2022-07-22T13:36:23;7.55;;;5.47;;
6163;SDS011;3114;48.362;10.994;2022-07-22T13:38:53;6.18;;;5.60;;
6163;SDS011;3114;48.362;10.994;2022-07-22T13:41:20;6.95;;;5.97;;
6163;SDS011;3114;48.362;10.994;2022-07-22T13:43:47;6.13;;;5.72;;
6163;SDS011;3114;48.362;10.994;2022-07-22T13:46:15;6.20;;;5.60;;
6163;SDS011;3114;48.362;10.994;2022-07-22T13:48:43;7.50;;;5.30;;
6163;SDS011;3114;48.362;10.994;2022-07-22T13:51:10;6.70;;;5.70;;
6163;SDS011;3114;48.362;10.994;2022-07-22T13:53:37;6.93;;;6.32;;
6163;SDS011;3114;48.362;10.994;2022-07-22T13:56:04;6.13;;;5.63;;
6163;SDS011;3114;48.362;10.994;2022-07-22T13:58:31;7.32;;;5.68;;
6163;SDS011;3114;48.362;10.994;2022-07-22T14:00:58;7.28;;;5.80;;
6163;SDS011;3114;48.362;10.994;2022-07-22T14:03:27;7.25;;;5.93;;
6163;SDS011;3114;48.362;10.994;2022-07-22T14:05:54;6.68;;;5.80;;
6163;SDS011;3114;48.362;10.994;2022-07-22T14:08:21;6.95;;;6.32;;
6163;SDS011;3114;48.362;10.994;2022-07-22T14:10:48;6.40;;;5.90;;
6163;SDS011;3114;48.362;10.994;2022-07-22T14:13:15;7.32;;;6.07;;
6163;SDS011;3114;48.362;10.994;2022-07-22T14:15:42;6.20;;;5.45;;
6163;SDS011;3114;48.362;10.994;2022-07-22T14:18:09;6.80;;;5.72;;
6163;SDS011;3114;48.362;10.994;2022-07-22T14:20:37;5.88;;;5.25;;
6163;SDS011;3114;48.362;10.994;2022-07-22T14:23:05;9.40;;;5.43;;
6163;SDS011;3114;48.362;10.994;2022-07-22T14:25:35;7.47;;;5.63;;
6163;SDS011;3114;48.362;10.994;2022-07-22T14:28:03;6.93;;;5.28;;
6163;SDS011;3114;48.362;10.994;2022-07-22T14:30:31;5.15;;;4.75;;
6163;SDS011;3114;48.362;10.994;2022-07-22T14:32:58;7.43;;;4.65;;
6163;SDS011;3114;48.362;10.994;2022-07-22T14:35:25;7.40;;;4.90;;
6163;SDS011;3114;48.362;10.994;2022-07-22T14:37:55;7.32;;;4.85;;
6163;SDS011;3114;48.362;10.994;2022-07-22T14:40:21;5.45;;;4.90;;
6163;SDS011;3114;48.362;10.994;2022-07-22T14:42:48;5.13;;;4.63;;
6163;SDS011;3114;48.362;10.994;2022-07-22T14:45:15;5.03;;;4.53;;
6163;SDS011;3114;48.362;10.994;2022-07-22T14:47:42;7.00;;;5.00;;
6163;SDS011;3114;48.362;10.994;2022-07-22T14:50:09;5.10;;;4.60;;
6163;SDS011;3114;48.362;10.994;2022-07-22T14:52:36;5.70;;;4.78;;
6163;SDS011;3114;48.362;10.994;2022-07-22T14:55:04;5.40;;;4.90;;